Time;durP1;ratioP1;P1;durP2;ratioP2;P2;SDS_P1;SDS_P2;PMS_P1;PMS_P2;Temp;Humidity;BMP_temperature;BMP_pressure;BME280_temperature;BME280_humidity;BME280_pressure;Samples;Min_cycle;Max_cycle;Signal;HPM_P1;HPM_P2
2022/03/07 00:00:55;;;;;;;25.38;14.55;;;52.00;2227.20;;;;;;4955475;28;20027;-79
2022/03/07 00:03:20;;;;;;;21.33;13.68;;;52.00;2227.20;;;;;;4954530;29;20478;-81
2022/03/07 00:05:46;;;;;;;16.52;12.77;;;52.00;2227.20;;;;;;4954020;29;20126;-79
2022/03/07 00:08:14;;;;;;;19.42;13.82;;;51.90;2227.20;;;;;;4954329;29;20027;-81
2022/03/07 00:10:40;;;;;;;19.50;14.15;;;51.90;2227.20;;;;;;4954444;29;20075;-83
2022/03/07 00:13:06;;;;;;;23.73;15.30;;;52.00;2227.20;;;;;;4955295;28;20480;-81
2022/03/07 00:15:31;;;;;;;25.13;16.13;;;51.90;2227.20;;;;;;4954433;29;20028;-77
2022/03/07 00:17:57;;;;;;;27.20;16.50;;;51.90;2227.20;;;;;;4954269;29;20484;-79
2022/03/07 00:20:23;;;;;;;30.55;18.85;;;51.90;2227.20;;;;;;4953832;29;20111;-81
2022/03/07 00:22:49;;;;;;;31.13;18.75;;;52.00;2227.20;;;;;;4955263;28;20019;-79
2022/03/07 00:25:17;;;;;;;29.88;18.25;;;52.00;2227.20;;;;;;4957804;29;20033;-81
2022/03/07 00:27:42;;;;;;;26.75;18.40;;;52.00;2227.20;;;;;;4959355;28;20464;-79
2022/03/07 00:30:09;;;;;;;33.85;21.17;;;52.10;2227.20;;;;;;4958176;29;20027;-80
2022/03/07 00:32:35;;;;;;;27.23;17.50;;;52.00;2227.20;;;;;;4957894;29;20167;-81
2022/03/07 00:35:01;;;;;;;30.13;20.02;;;51.90;2227.20;;;;;;4958176;29;20491;-81
2022/03/07 00:37:27;;;;;;;29.65;18.88;;;51.90;2227.20;;;;;;4959195;28;20027;-81
2022/03/07 00:39:53;;;;;;;25.27;17.85;;;77.10;2227.20;;;;;;4958933;28;20046;-81
2022/03/07 00:42:19;;;;;;;26.15;17.73;;;52.00;2227.20;;;;;;4959521;28;20442;-79
2022/03/07 00:44:44;;;;;;;32.58;21.90;;;51.80;2227.20;;;;;;4957856;29;20469;-81
2022/03/07 00:47:10;;;;;;;25.85;18.08;;;51.90;2227.20;;;;;;4958842;28;20020;-80
2022/03/07 00:49:36;;;;;;;25.45;17.05;;;51.90;2227.20;;;;;;4957910;29;20023;-82
2022/03/07 00:52:02;;;;;;;24.13;17.70;;;51.90;2227.20;;;;;;4957793;29;20369;-78
2022/03/07 00:54:28;;;;;;;21.45;15.07;;;51.90;2227.20;;;;;;4958470;28;20462;-79
2022/03/07 00:56:54;;;;;;;33.80;19.13;;;51.90;2227.20;;;;;;4957805;29;20038;-81
2022/03/07 00:59:19;;;;;;;27.00;18.02;;;51.80;2227.20;;;;;;4957273;29;20043;-79
2022/03/07 01:01:45;;;;;;;27.63;15.35;;;51.80;2227.20;;;;;;4958398;28;20049;-76
2022/03/07 01:04:11;;;;;;;23.00;15.27;;;51.80;2227.20;;;;;;4958795;28;20023;-81
2022/03/07 01:06:37;;;;;;;29.70;17.15;;;51.80;2227.20;;;;;;4959061;28;20420;-81
2022/03/07 01:09:03;;;;;;;23.75;14.75;;;51.80;2227.20;;;;;;4958160;28;20027;-81
2022/03/07 01:11:29;;;;;;;28.92;17.15;;;51.80;2227.20;;;;;;4958740;28;20024;-81
2022/03/07 01:13:54;;;;;;;19.63;13.13;;;51.80;2227.20;;;;;;4957415;29;20035;-80
2022/03/07 01:16:20;;;;;;;19.42;12.75;;;51.80;2227.20;;;;;;4957077;29;20541;-80
2022/03/07 01:18:46;;;;;;;20.90;13.60;;;51.80;2227.20;;;;;;4957316;29;20023;-81
2022/03/07 01:21:12;;;;;;;20.50;14.10;;;51.70;2227.20;;;;;;4956981;29;20114;-80
2022/03/07 01:23:38;;;;;;;25.00;16.40;;;51.70;2227.20;;;;;;4957244;29;20117;-80
2022/03/07 01:26:04;;;;;;;30.67;18.65;;;51.70;2227.20;;;;;;4957171;29;20446;-79
2022/03/07 01:28:30;;;;;;;33.25;18.38;;;51.80;2227.20;;;;;;4958221;28;20094;-79
2022/03/07 01:30:56;;;;;;;26.17;14.82;;;51.80;2227.20;;;;;;4957017;29;20015;-81
2022/03/07 01:33:21;;;;;;;28.27;15.95;;;51.80;2227.20;;;;;;4958278;28;20023;-82
2022/03/07 01:35:47;;;;;;;22.17;14.20;;;51.80;2227.20;;;;;;4955772;28;20027;-79
2022/03/07 01:38:13;;;;;;;21.90;13.25;;;51.80;2227.20;;;;;;4957003;29;20019;-81
2022/03/07 01:40:42;;;;;;;25.13;13.95;;;51.70;2227.20;;;;;;4958296;28;20031;-79
2022/03/07 01:43:08;;;;;;;25.73;14.73;;;51.70;2227.20;;;;;;4956554;29;20062;-78
2022/03/07 01:45:34;;;;;;;28.45;16.13;;;51.70;2227.20;;;;;;4956851;29;20130;-81
2022/03/07 01:48:01;;;;;;;26.17;13.70;;;51.70;2227.20;;;;;;4956763;29;20023;-79
2022/03/07 01:50:27;;;;;;;22.27;13.73;;;51.60;2227.20;;;;;;4956434;29;20027;-78
2022/03/07 01:52:53;;;;;;;24.17;12.85;;;51.70;2227.20;;;;;;4956930;29;20353;-79
2022/03/07 01:55:20;;;;;;;22.67;14.25;;;51.60;2227.20;;;;;;4956671;29;20038;-78
2022/03/07 01:57:46;;;;;;;24.13;15.90;;;51.60;2227.20;;;;;;4956101;29;20023;-80
2022/03/07 02:00:16;;;;;;;24.63;15.45;;;51.70;2227.20;;;;;;4956704;29;20114;-79
2022/03/07 02:02:43;;;;;;;28.30;17.83;;;51.80;2227.20;;;;;;4957810;28;20027;-80
2022/03/07 02:05:10;;;;;;;35.88;22.27;;;51.80;2227.20;;;;;;4957435;28;20369;-80
2022/03/07 02:07:37;;;;;;;33.13;21.75;;;51.80;2227.20;;;;;;4957506;28;20103;-78
2022/03/07 02:10:03;;;;;;;29.75;19.58;;;51.90;2227.20;;;;;;4957648;28;20019;-78
2022/03/07 02:12:29;;;;;;;30.33;20.23;;;51.80;2227.20;;;;;;4956248;29;20113;-78
2022/03/07 02:14:56;;;;;;;27.70;17.38;;;51.90;2227.20;;;;;;4956304;29;20118;-80
2022/03/07 02:17:22;;;;;;;25.17;16.35;;;51.80;2227.20;;;;;;4956893;28;20035;-80
2022/03/07 02:19:48;;;;;;;34.00;21.80;;;51.80;2227.20;;;;;;4957199;28;20023;-80
2022/03/07 02:22:16;;;;;;;25.45;16.77;;;51.70;2227.20;;;;;;4955889;29;20062;-80
2022/03/07 02:24:42;;;;;;;18.95;13.05;;;51.90;2227.20;;;;;;4955981;29;20031;-79
2022/03/07 02:27:09;;;;;;;18.52;13.05;;;51.80;2227.20;;;;;;4956157;29;20023;-80
2022/03/07 02:29:36;;;;;;;17.83;12.25;;;51.80;2227.20;;;;;;4956043;29;20480;-80
2022/03/07 02:32:04;;;;;;;16.40;11.57;;;51.90;2227.20;;;;;;4955742;29;20035;-81
2022/03/07 02:34:29;;;;;;;15.13;10.35;;;51.80;2227.20;;;;;;4955909;29;20122;-78
2022/03/07 02:36:55;;;;;;;14.73;10.57;;;51.90;2227.20;;;;;;4955967;29;20106;-80
2022/03/07 02:39:21;;;;;;;12.77;9.10;;;51.80;2227.20;;;;;;4955559;29;20027;-80
2022/03/07 02:41:47;;;;;;;13.00;9.05;;;51.90;2227.20;;;;;;4957128;29;20023;-81
2022/03/07 02:44:13;;;;;;;12.02;9.00;;;51.90;2227.20;;;;;;4955630;29;20508;-77
2022/03/07 02:46:39;;;;;;;17.88;12.25;;;51.80;2227.20;;;;;;4955426;28;20023;-79
2022/03/07 02:49:06;;;;;;;15.27;10.80;;;51.80;2227.20;;;;;;4955764;29;20458;-78
2022/03/07 02:51:33;;;;;;;11.93;8.52;;;51.70;2227.20;;;;;;4955362;29;20090;-80
2022/03/07 02:53:58;;;;;;;10.20;7.60;;;51.70;2227.20;;;;;;4956238;29;20054;-80
2022/03/07 02:56:24;;;;;;;10.70;7.88;;;51.60;2227.20;;;;;;4956739;29;20067;-80
2022/03/07 02:58:50;;;;;;;15.15;9.25;;;51.60;2227.20;;;;;;4956323;29;20393;-81
2022/03/07 03:01:16;;;;;;;17.02;11.02;;;51.60;2227.20;;;;;;4955102;29;20102;-79
2022/03/07 03:03:42;;;;;;;12.05;8.38;;;51.60;2227.20;;;;;;4956638;28;20031;-80
2022/03/07 03:06:08;;;;;;;13.02;8.27;;;51.60;2227.20;;;;;;4965770;29;20015;-78
2022/03/07 03:08:34;;;;;;;16.27;10.00;;;51.60;2227.20;;;;;;4973741;29;20050;-77
2022/03/07 03:11:01;;;;;;;14.27;9.52;;;51.60;2227.20;;;;;;4955397;29;20016;-79
2022/03/07 03:13:27;;;;;;;15.07;10.15;;;51.60;2227.20;;;;;;4956301;29;20026;-77
2022/03/07 03:15:54;;;;;;;16.23;9.32;;;51.70;2227.20;;;;;;4956706;28;20054;-76
2022/03/07 03:18:21;;;;;;;18.10;10.27;;;51.60;2227.20;;;;;;4955190;29;20409;-80
2022/03/07 03:20:50;;;;;;;16.00;9.85;;;51.60;2227.20;;;;;;4954753;29;20050;-76
2022/03/07 03:23:17;;;;;;;11.90;8.68;;;51.60;2227.20;;;;;;4956241;29;20050;-77
2022/03/07 03:25:43;;;;;;;13.10;8.43;;;51.60;2227.20;;;;;;4956213;29;20031;-79
2022/03/07 03:28:09;;;;;;;13.60;9.93;;;51.70;2227.20;;;;;;4954668;29;20023;-79
2022/03/07 03:30:35;;;;;;;13.07;8.82;;;51.60;2227.20;;;;;;4954914;29;20033;-76
2022/03/07 03:33:02;;;;;;;18.33;11.18;;;51.60;2227.20;;;;;;4954914;29;20023;-77
2022/03/07 03:35:28;;;;;;;15.32;11.02;;;51.70;2227.20;;;;;;4954602;29;20533;-79
2022/03/07 03:37:54;;;;;;;13.07;8.57;;;51.80;2227.20;;;;;;4954862;29;20106;-75
2022/03/07 03:40:20;;;;;;;12.40;8.50;;;51.80;2227.20;;;;;;4956247;29;20062;-76
2022/03/07 03:42:46;;;;;;;11.43;7.97;;;51.70;2227.20;;;;;;4954445;29;20114;-78
2022/03/07 03:45:13;;;;;;;11.50;7.88;;;51.80;2227.20;;;;;;4954578;29;20034;-76
2022/03/07 03:47:43;;;;;;;11.52;7.45;;;51.70;2227.20;;;;;;4955651;29;20062;-77
2022/03/07 03:50:11;;;;;;;13.45;7.85;;;51.60;2227.20;;;;;;4955559;29;20028;-80
2022/03/07 03:52:38;;;;;;;14.02;8.30;;;51.60;2227.20;;;;;;4954679;29;20023;-77
2022/03/07 03:55:05;;;;;;;9.95;7.45;;;51.70;2227.20;;;;;;4955583;29;20094;-76
2022/03/07 03:57:31;;;;;;;14.10;8.93;;;51.70;2227.20;;;;;;4954083;28;20019;-79
2022/03/07 03:59:57;;;;;;;13.65;9.10;;;51.70;2227.20;;;;;;4954420;29;20043;-78
2022/03/07 04:02:23;;;;;;;29.70;16.00;;;51.80;2227.20;;;;;;4954376;29;20034;-76
2022/03/07 04:04:49;;;;;;;29.38;13.70;;;51.80;2227.20;;;;;;4954538;29;20039;-76
2022/03/07 04:07:15;;;;;;;21.02;12.02;;;51.80;2227.20;;;;;;4954372;29;20026;-79
2022/03/07 04:09:41;;;;;;;19.23;10.32;;;51.80;2227.20;;;;;;4954169;29;20019;-77
2022/03/07 04:12:07;;;;;;;11.30;7.70;;;51.70;2227.20;;;;;;4954462;29;20413;-78
2022/03/07 04:14:33;;;;;;;7.68;5.35;;;51.70;2227.20;;;;;;4955412;29;20417;-77
2022/03/07 04:16:59;;;;;;;8.95;5.72;;;51.60;2227.20;;;;;;4954080;29;20024;-78
2022/03/07 04:19:25;;;;;;;8.63;6.18;;;51.60;2227.20;;;;;;4954266;29;20078;-76
2022/03/07 04:21:52;;;;;;;12.35;7.95;;;51.50;2227.20;;;;;;4954446;29;20019;-77
2022/03/07 04:24:18;;;;;;;11.07;7.35;;;51.70;2227.20;;;;;;4953674;29;20051;-77
2022/03/07 04:26:45;;;;;;;9.95;6.25;;;51.70;2227.20;;;;;;4954241;29;20035;-79
2022/03/07 04:29:11;;;;;;;10.63;7.60;;;51.70;2227.20;;;;;;4954232;29;20346;-76
2022/03/07 04:31:39;;;;;;;12.48;9.10;;;51.70;2227.20;;;;;;4953945;29;20078;-77
2022/03/07 04:34:06;;;;;;;11.95;8.32;;;51.80;2227.20;;;;;;4954115;29;20537;-78
2022/03/07 04:36:34;;;;;;;10.90;6.90;;;52.00;2227.20;;;;;;4957054;29;20081;-80
2022/03/07 04:39:00;;;;;;;9.25;6.90;;;52.00;2227.20;;;;;;4956597;29;20023;-80
2022/03/07 04:41:26;;;;;;;8.57;6.55;;;52.10;2227.20;;;;;;4956365;29;20026;-81
2022/03/07 04:43:52;;;;;;;12.43;8.32;;;52.00;2227.20;;;;;;4954146;29;20143;-80
2022/03/07 04:46:18;;;;;;;11.80;8.52;;;51.90;2227.20;;;;;;4954963;29;20039;-81
2022/03/07 04:48:43;;;;;;;14.68;10.43;;;52.00;2227.20;;;;;;4954073;29;20408;-80
2022/03/07 04:51:09;;;;;;;16.17;10.70;;;52.00;2227.20;;;;;;4955057;28;20050;-81
2022/03/07 04:53:35;;;;;;;15.52;10.23;;;51.90;2227.20;;;;;;4953969;29;20034;-80
2022/03/07 04:56:01;;;;;;;14.77;9.98;;;52.00;2227.20;;;;;;4954043;29;20077;-79
2022/03/07 04:58:27;;;;;;;19.95;12.45;;;51.90;2227.20;;;;;;4953423;29;20054;-80
2022/03/07 05:00:54;;;;;;;15.27;11.55;;;51.90;2227.20;;;;;;4955058;28;20049;-82
2022/03/07 05:03:21;;;;;;;16.88;11.05;;;51.90;2227.20;;;;;;4953902;29;20114;-79
2022/03/07 05:05:48;;;;;;;16.40;11.45;;;51.90;2227.20;;;;;;4953503;29;20457;-81
2022/03/07 05:08:14;;;;;;;14.13;10.48;;;52.00;2227.20;;;;;;4953926;29;20027;-79
2022/03/07 05:10:40;;;;;;;12.80;9.05;;;52.10;2227.20;;;;;;4956067;28;20074;-81
2022/03/07 05:13:05;;;;;;;52.83;26.05;;;52.00;2227.20;;;;;;4957082;29;20024;-81
2022/03/07 05:15:31;;;;;;;46.33;26.67;;;76.80;2227.20;;;;;;4957506;29;20027;-80
2022/03/07 05:17:58;;;;;;;40.88;24.00;;;76.80;2227.20;;;;;;4957289;29;20101;-80
2022/03/07 05:20:25;;;;;;;27.85;17.42;;;52.10;2227.20;;;;;;4956937;29;20049;-81
2022/03/07 05:22:51;;;;;;;23.25;16.73;;;51.60;2227.20;;;;;;4957320;29;20051;-80
2022/03/07 05:25:18;;;;;;;29.90;21.30;;;52.10;2227.20;;;;;;4957276;29;20035;-82
2022/03/07 05:27:44;;;;;;;31.05;21.90;;;52.10;2227.20;;;;;;4956868;29;20074;-80
2022/03/07 05:30:15;;;;;;;23.88;17.73;;;52.10;2227.20;;;;;;4958008;28;20410;-79
2022/03/07 05:32:59;;;;;;;21.33;15.82;;;52.00;2227.20;;;;;;4957091;29;20453;-81
2022/03/07 05:35:25;;;;;;;32.28;21.60;;;51.90;2227.20;;;;;;4956827;29;20058;-81
2022/03/07 05:37:51;;;;;;;16.73;12.55;;;51.90;2227.20;;;;;;4957078;29;20102;-83
2022/03/07 05:40:18;;;;;;;21.98;13.63;;;52.10;2227.20;;;;;;4957890;28;20421;-81
2022/03/07 05:42:44;;;;;;;21.08;13.00;;;52.00;2227.20;;;;;;4956903;29;20197;-82
2022/03/07 05:45:12;;;;;;;23.10;15.10;;;52.10;2227.20;;;;;;4957024;29;20094;-81
2022/03/07 05:47:38;;;;;;;58.03;34.38;;;52.10;2227.20;;;;;;4956518;29;20062;-80
2022/03/07 05:50:05;;;;;;;115.43;62.00;;;52.10;2227.20;;;;;;4956635;29;20024;-82
2022/03/07 05:52:30;;;;;;;42.63;24.23;;;51.80;2227.20;;;;;;4956682;29;20023;-82
2022/03/07 05:54:56;;;;;;;15.63;11.38;;;52.00;2227.20;;;;;;4956423;29;20023;-80
2022/03/07 05:57:22;;;;;;;15.48;10.77;;;51.90;2227.20;;;;;;4956656;29;20024;-83
2022/03/07 05:59:49;;;;;;;20.23;13.15;;;51.90;2227.20;;;;;;4956525;29;20045;-80
2022/03/07 06:02:14;;;;;;;21.30;14.50;;;51.90;2227.20;;;;;;4956344;29;20027;-79
2022/03/07 06:04:41;;;;;;;19.30;12.95;;;51.80;2227.20;;;;;;4956578;29;20042;-80
2022/03/07 06:07:07;;;;;;;20.25;11.98;;;51.80;2227.20;;;;;;4956544;29;20023;-80
2022/03/07 06:09:33;;;;;;;15.85;10.02;;;51.70;2227.20;;;;;;4956132;29;20027;-80
2022/03/07 06:11:59;;;;;;;17.38;11.15;;;51.70;2227.20;;;;;;4956478;29;20027;-82
2022/03/07 06:14:25;;;;;;;17.15;12.50;;;51.70;2227.20;;;;;;4956265;29;20118;-83
2022/03/07 06:16:50;;;;;;;16.77;10.25;;;51.80;2227.20;;;;;;4955991;29;20026;-82
2022/03/07 06:19:16;;;;;;;16.63;11.63;;;51.70;2227.20;;;;;;4956419;29;20026;-82
2022/03/07 06:21:42;;;;;;;20.63;13.82;;;51.70;2227.20;;;;;;4955984;28;20497;-81
2022/03/07 06:24:08;;;;;;;19.90;13.43;;;51.70;2227.20;;;;;;4955864;29;20365;-82
2022/03/07 06:26:35;;;;;;;25.45;15.75;;;51.70;2227.20;;;;;;4956053;29;20032;-80
2022/03/07 06:29:02;;;;;;;28.33;17.83;;;51.80;2227.20;;;;;;4956170;29;20019;-82
2022/03/07 06:31:28;;;;;;;31.55;20.65;;;51.60;2227.20;;;;;;4956368;29;20374;-79
2022/03/07 06:33:54;;;;;;;24.95;18.88;;;51.60;2227.20;;;;;;4956234;29;20034;-81
2022/03/07 06:36:20;;;;;;;27.85;20.80;;;51.70;2227.20;;;;;;4967874;28;20015;-79
2022/03/07 06:38:45;;;;;;;37.00;23.38;;;51.80;2227.20;;;;;;4979522;28;20015;-81
2022/03/07 06:41:11;;;;;;;24.13;18.88;;;51.80;2227.20;;;;;;4956101;29;20023;-82
2022/03/07 06:43:38;;;;;;;24.35;17.40;;;51.80;2227.20;;;;;;4956058;29;20453;-82
2022/03/07 06:46:05;;;;;;;31.15;19.20;;;51.90;2227.20;;;;;;4955845;29;20045;-81
2022/03/07 06:48:31;;;;;;;30.77;19.30;;;76.90;2227.20;;;;;;4956724;28;20422;-81
2022/03/07 06:50:56;;;;;;;46.75;30.60;;;51.90;2227.20;;;;;;4956572;28;20024;-82
2022/03/07 06:53:22;;;;;;;55.15;34.10;;;51.90;2227.20;;;;;;4955764;29;20019;-79
2022/03/07 06:55:48;;;;;;;47.03;29.73;;;52.00;2227.20;;;;;;4955554;29;20373;-81
2022/03/07 06:58:14;;;;;;;51.38;29.95;;;52.00;2227.20;;;;;;4955011;29;20059;-81
2022/03/07 07:00:40;;;;;;;46.70;29.52;;;52.00;2227.20;;;;;;4955605;29;20030;-81
2022/03/07 07:03:06;;;;;;;39.20;26.15;;;52.00;2227.20;;;;;;4955512;29;20023;-80
2022/03/07 07:05:32;;;;;;;28.33;18.10;;;52.10;2227.20;;;;;;4955148;29;20478;-81
2022/03/07 07:07:59;;;;;;;35.08;21.40;;;52.10;2227.20;;;;;;4955680;29;20093;-80
2022/03/07 07:10:25;;;;;;;36.30;23.30;;;52.10;2227.20;;;;;;4955369;29;20376;-79
2022/03/07 07:12:52;;;;;;;43.10;38.08;;;76.80;2227.20;;;;;;4956002;28;20026;-82
2022/03/07 07:15:18;;;;;;;40.63;30.80;;;76.80;2227.20;;;;;;4955293;29;20117;-82
2022/03/07 07:17:45;;;;;;;61.83;41.55;;;76.80;2227.20;;;;;;4955304;29;20118;-82
2022/03/07 07:20:12;;;;;;;33.28;23.60;;;76.80;2227.20;;;;;;4954910;29;20038;-81
2022/03/07 07:22:39;;;;;;;35.85;26.33;;;52.10;2227.20;;;;;;4955075;29;20019;-82
2022/03/07 07:25:06;;;;;;;26.27;20.05;;;76.80;2227.20;;;;;;4954421;29;20090;-82
2022/03/07 07:27:33;;;;;;;37.40;26.17;;;77.00;2227.20;;;;;;4955008;29;20094;-82
2022/03/07 07:29:59;;;;;;;34.88;25.42;;;77.00;2227.20;;;;;;4956626;28;20027;-83
2022/03/07 07:32:25;;;;;;;23.17;17.65;;;77.00;2227.20;;;;;;4953605;28;20031;-81
2022/03/07 07:34:51;;;;;;;27.10;19.40;;;77.00;2227.20;;;;;;4954830;29;20027;-83
2022/03/07 07:37:17;;;;;;;27.77;19.33;;;77.00;2227.20;;;;;;4956211;28;20027;-81
2022/03/07 07:39:43;;;;;;;23.27;17.80;;;76.90;2227.20;;;;;;4954560;29;20027;-79
2022/03/07 07:42:08;;;;;;;27.17;18.50;;;77.00;2227.20;;;;;;4954819;29;20147;-80
2022/03/07 07:44:34;;;;;;;21.08;15.55;;;77.10;2227.20;;;;;;4954735;29;20038;-83
2022/03/07 07:47:01;;;;;;;25.58;16.20;;;77.20;2227.20;;;;;;4954438;29;20027;-82
2022/03/07 07:49:27;;;;;;;19.98;13.98;;;77.20;2227.20;;;;;;4954431;29;20031;-81
2022/03/07 07:51:53;;;;;;;27.92;21.38;;;77.20;2227.20;;;;;;4955963;28;20027;-81
2022/03/07 07:54:19;;;;;;;21.77;17.08;;;77.30;2227.20;;;;;;4954416;29;20020;-81
2022/03/07 07:56:44;;;;;;;21.70;18.38;;;77.30;2227.20;;;;;;4954665;29;20037;-82
2022/03/07 07:59:11;;;;;;;19.35;14.82;;;77.30;2227.20;;;;;;4954293;29;20053;-83
2022/03/07 08:01:37;;;;;;;22.02;15.65;;;77.40;2227.20;;;;;;4954338;29;20027;-82
2022/03/07 08:04:03;;;;;;;14.27;11.15;;;77.40;2227.20;;;;;;4954221;29;20034;-81
2022/03/07 08:06:29;;;;;;;22.10;15.63;;;77.40;2227.20;;;;;;4955680;28;20098;-82
2022/03/07 08:08:55;;;;;;;40.70;26.75;;;77.30;2227.20;;;;;;4955428;28;20023;-82
2022/03/07 08:11:21;;;;;;;34.38;24.75;;;77.40;2227.20;;;;;;4954397;29;20027;-82
2022/03/07 08:13:47;;;;;;;33.90;26.40;;;77.40;2227.20;;;;;;4954390;29;20023;-82
2022/03/07 08:16:13;;;;;;;27.58;18.77;;;77.40;2227.20;;;;;;4954145;29;20023;-81
2022/03/07 08:18:39;;;;;;;57.75;36.47;;;77.50;2227.20;;;;;;4955621;28;20027;-83
2022/03/07 08:21:04;;;;;;;37.83;28.23;;;77.50;2227.20;;;;;;4954092;29;20028;-82
2022/03/07 08:23:30;;;;;;;27.63;20.33;;;77.60;2227.20;;;;;;4955536;28;20424;-82
2022/03/07 08:25:56;;;;;;;30.15;22.60;;;77.60;2227.20;;;;;;4955256;28;20035;-81
2022/03/07 08:28:23;;;;;;;47.08;33.03;;;77.50;2227.20;;;;;;4954011;29;20024;-80
2022/03/07 08:30:50;;;;;;;56.85;42.80;;;77.60;2227.20;;;;;;4954210;29;20081;-78
2022/03/07 08:33:16;;;;;;;52.30;41.85;;;102.40;2227.20;;;;;;4955382;28;20023;-76
2022/03/07 08:35:42;;;;;;;33.45;27.38;;;77.70;2227.20;;;;;;4953911;29;20034;-79
2022/03/07 08:38:07;;;;;;;29.75;23.33;;;77.70;2227.20;;;;;;4954130;29;20380;-80
2022/03/07 08:40:33;;;;;;;40.47;25.13;;;102.40;2227.20;;;;;;4954151;29;20031;-76
2022/03/07 08:42:59;;;;;;;27.48;18.58;;;102.40;2227.20;;;;;;4953761;29;20047;-83
2022/03/07 08:45:26;;;;;;;24.98;18.23;;;102.40;2227.20;;;;;;4957579;28;20359;-80
2022/03/07 08:47:52;;;;;;;27.30;19.05;;;102.40;2227.20;;;;;;4958900;28;20478;-79
2022/03/07 08:50:18;;;;;;;25.52;17.52;;;102.40;2227.20;;;;;;4957604;29;20090;-81
2022/03/07 08:52:45;;;;;;;23.52;16.45;;;102.60;2227.20;;;;;;4957927;29;20027;-77
2022/03/07 08:55:12;;;;;;;24.20;17.63;;;102.50;2227.20;;;;;;4958751;28;20086;-80
2022/03/07 08:57:38;;;;;;;22.77;16.00;;;102.50;2227.20;;;;;;4957271;29;20023;-80
2022/03/07 09:00:11;;;;;;;32.22;23.02;;;102.60;2227.20;;;;;;4957679;29;20238;-81
2022/03/07 09:02:38;;;;;;;34.65;23.60;;;102.70;2227.20;;;;;;4957682;29;20027;-79
2022/03/07 09:05:05;;;;;;;35.65;26.50;;;102.70;2227.20;;;;;;4957374;29;20047;-83
2022/03/07 09:07:33;;;;;;;40.47;32.95;;;102.70;2227.20;;;;;;4958426;28;20354;-80
2022/03/07 09:09:59;;;;;;;31.80;26.00;;;102.80;2227.20;;;;;;4957552;29;20027;-78
2022/03/07 09:12:28;;;;;;;29.48;22.80;;;102.70;2227.20;;;;;;4958433;28;20330;-79
2022/03/07 09:14:58;;;;;;;30.13;21.17;;;102.80;2227.20;;;;;;4958296;28;20066;-76
2022/03/07 09:17:25;;;;;;;31.73;24.10;;;102.80;2227.20;;;;;;4956975;29;20038;-79
2022/03/07 09:19:52;;;;;;;33.00;26.27;;;102.80;2227.20;;;;;;4958610;28;20035;-77
2022/03/07 09:22:18;;;;;;;25.02;18.23;;;102.90;2227.20;;;;;;4957189;29;20420;-77
2022/03/07 09:24:45;;;;;;;35.35;24.63;;;102.90;2227.20;;;;;;4956829;29;20034;-79
2022/03/07 09:27:11;;;;;;;25.70;19.63;;;102.90;2227.20;;;;;;4957163;29;20034;-76
2022/03/07 09:29:36;;;;;;;28.38;22.42;;;102.90;2227.20;;;;;;4957038;29;20090;-76
2022/03/07 09:32:05;;;;;;;25.55;19.08;;;102.90;2227.20;;;;;;4958059;28;20094;-75
2022/03/07 09:34:32;;;;;;;23.00;18.60;;;102.90;2227.20;;;;;;4957007;29;20027;-75
2022/03/07 09:36:58;;;;;;;39.60;28.10;;;102.90;2227.20;;;;;;4957024;29;20409;-78
2022/03/07 09:39:24;;;;;;;42.80;28.20;;;102.90;2227.20;;;;;;4958192;28;20030;-78
2022/03/07 09:41:50;;;;;;;66.65;42.55;;;102.90;2227.20;;;;;;4957913;28;20528;-79
2022/03/07 09:44:16;;;;;;;81.57;53.83;;;102.90;2227.20;;;;;;4958159;28;20098;-82
2022/03/07 09:46:42;;;;;;;40.38;29.50;;;103.00;2227.20;;;;;;4956595;29;20043;-78
2022/03/07 09:49:08;;;;;;;28.33;22.08;;;102.80;2227.20;;;;;;4956834;29;20106;-77
2022/03/07 09:51:35;;;;;;;41.58;28.13;;;102.80;2227.20;;;;;;4956674;29;20532;-77
2022/03/07 09:54:01;;;;;;;41.35;30.63;;;102.80;2227.20;;;;;;4956427;29;20045;-77
2022/03/07 09:56:27;;;;;;;41.42;29.52;;;102.80;2227.20;;;;;;4955912;28;20163;-77
2022/03/07 09:58:52;;;;;;;36.22;26.73;;;102.80;2227.20;;;;;;4956305;29;20055;-79
2022/03/07 10:01:21;;;;;;;39.85;28.45;;;102.90;2227.20;;;;;;4956344;29;20023;-76
2022/03/07 10:03:47;;;;;;;44.15;30.95;;;103.00;2227.20;;;;;;4956525;29;20056;-79
2022/03/07 10:06:18;;;;;;;62.85;46.63;;;128.00;2252.80;;;;;;4956197;29;20373;-76
2022/03/07 10:08:52;;;;;;;73.65;64.22;;;103.00;2227.20;;;;;;4964639;28;20083;-77
2022/03/07 10:11:18;;;;;;;49.53;44.22;;;102.90;2227.20;;;;;;4970386;29;20492;-80
2022/03/07 10:13:55;;;;;;;29.70;21.88;;;103.00;2227.20;;;;;;4956190;29;20529;-77
2022/03/07 10:16:21;;;;;;;37.00;25.38;;;103.00;2227.20;;;;;;4956427;29;20494;-79
2022/03/07 10:18:54;;;;;;;54.75;30.55;;;102.80;2227.20;;;;;;4956021;29;20027;-76
2022/03/07 10:21:25;;;;;;;39.85;25.08;;;103.00;2227.20;;;;;;4956102;29;20024;-81
2022/03/07 10:23:56;;;;;;;24.00;17.35;;;103.10;2227.20;;;;;;4957605;28;20023;-75
2022/03/07 10:26:23;;;;;;;24.23;16.55;;;103.00;2227.20;;;;;;4956136;29;20061;-79
2022/03/07 10:28:54;;;;;;;28.83;20.48;;;102.90;2227.20;;;;;;4955735;29;20023;-75
2022/03/07 10:31:21;;;;;;;34.00;24.25;;;103.00;2227.20;;;;;;4955939;29;20030;-73
2022/03/07 10:33:48;;;;;;;32.20;22.70;;;102.90;2227.20;;;;;;4950828;29;20019;-76
2022/03/07 10:36:15;;;;;;;30.13;22.17;;;103.20;2227.20;;;;;;4955532;29;20078;-77
2022/03/07 10:38:43;;;;;;;39.85;29.05;;;103.30;2227.20;;;;;;4956768;28;20478;-76
2022/03/07 10:41:09;;;;;;;34.17;23.85;;;103.20;2227.20;;;;;;4955392;29;20030;-76
2022/03/07 10:43:46;;;;;;;32.13;21.88;;;103.30;2227.20;;;;;;4956885;28;20102;-77
2022/03/07 10:46:12;;;;;;;29.77;20.40;;;103.30;2227.20;;;;;;4955366;29;20078;-79
2022/03/07 10:48:42;;;;;;;40.58;25.25;;;128.00;2252.80;;;;;;4956338;28;20027;-76
2022/03/07 10:51:16;;;;;;;32.88;22.25;;;103.30;2227.20;;;;;;4955552;29;20023;-76
2022/03/07 10:53:42;;;;;;;50.45;34.00;;;103.20;2227.20;;;;;;4955037;29;20118;-77
2022/03/07 10:56:12;;;;;;;45.67;31.13;;;103.20;2227.20;;;;;;4938892;29;20434;-75
2022/03/07 10:58:49;;;;;;;44.28;31.75;;;103.20;2227.20;;;;;;4935872;29;20438;-75
2022/03/07 11:01:25;;;;;;;54.50;37.75;;;103.30;2227.20;;;;;;4937404;29;20083;-78
2022/03/07 11:03:51;;;;;;;32.78;20.40;;;103.30;2227.20;;;;;;4937017;29;20030;-76
2022/03/07 11:06:17;;;;;;;30.65;21.92;;;103.20;2227.20;;;;;;4935774;29;20122;-75
2022/03/07 11:08:44;;;;;;;38.78;26.48;;;103.20;2227.20;;;;;;4919181;29;20028;-77
2022/03/07 11:11:13;;;;;;;28.48;19.48;;;103.30;2227.20;;;;;;4935499;29;20078;-78
2022/03/07 11:13:41;;;;;;;36.58;25.17;;;103.20;2227.20;;;;;;4937120;29;20092;-77
2022/03/07 11:16:07;;;;;;;123.80;77.25;;;103.10;2227.20;;;;;;4935693;29;20028;-77
2022/03/07 11:18:33;;;;;;;48.13;33.30;;;103.10;2227.20;;;;;;4925645;29;20030;-79
2022/03/07 11:21:00;;;;;;;63.00;38.67;;;103.10;2227.20;;;;;;4938841;29;20024;-77
2022/03/07 11:23:29;;;;;;;53.38;34.85;;;103.10;2227.20;;;;;;4938522;29;20170;-81
2022/03/07 11:25:58;;;;;;;32.03;22.55;;;103.20;2227.20;;;;;;4938827;29;20046;-79
2022/03/07 11:28:27;;;;;;;135.48;84.65;;;103.10;2227.20;;;;;;4938760;29;20024;-79
2022/03/07 11:31:01;;;;;;;281.38;138.07;;;103.20;2227.20;;;;;;4955574;29;20483;-80
2022/03/07 11:33:34;;;;;;;141.20;103.10;;;103.20;2227.20;;;;;;4938537;29;20031;-74
2022/03/07 11:36:02;;;;;;;174.45;122.57;;;103.20;2227.20;;;;;;4955767;29;20034;-77
2022/03/07 11:38:31;;;;;;;66.70;49.75;;;103.20;2227.20;;;;;;4938776;29;20042;-78
2022/03/07 11:41:07;;;;;;;48.45;35.83;;;103.00;2227.20;;;;;;4955490;29;20024;-76
2022/03/07 11:43:46;;;;;;;41.78;33.65;;;103.10;2227.20;;;;;;4956045;29;20035;-74
2022/03/07 11:46:39;;;;;;;57.45;42.22;;;103.10;2227.20;;;;;;4954919;29;20059;-76
2022/03/07 11:49:08;;;;;;;29.88;23.48;;;103.10;2227.20;;;;;;4956169;29;20030;-75
2022/03/07 11:51:38;;;;;;;32.08;25.30;;;103.10;2227.20;;;;;;4955320;29;20166;-78
2022/03/07 11:54:05;;;;;;;33.25;26.67;;;103.20;2227.20;;;;;;4955858;29;20034;-78
2022/03/07 11:56:32;;;;;;;29.85;21.13;;;103.30;2227.20;;;;;;4955771;29;20373;-77
2022/03/07 11:59:00;;;;;;;40.45;27.35;;;128.00;2252.80;;;;;;4945615;29;20050;-77
2022/03/07 12:01:30;;;;;;;47.22;31.52;;;103.30;2227.20;;;;;;4954477;29;20019;-76
2022/03/07 12:04:09;;;;;;;32.55;24.38;;;128.10;2252.80;;;;;;4954734;29;20027;-75